Old Allen, Kentucky
Current Conditions -  °F | °C
As of 10:15 AM on Friday 31 Oct 2014 (Local Time) from KPBX Reporting Station
Light Rain Light Rain  
Wind Chill: 39°   Ceiling: 4800
Heat Index: 39°   Visibility: 5mi
Dew Point: 38°   Wind: 0mph
Humidity: 97%   Direction: NA
Pressure: 29.96"   Gusts: NA
Location:  37.5917°N, 82.646°W
Report Text: KPBX 311415Z AUTO 00000KT 5SM -RA SCT002 SCT028 OVC048 04/03 A2996 RMK AO2 T00370032
Loading
Personal Weather Stations






























Interactive Weather Map
Tropical Storm Tracking
New forecast layout! Learn more

10-Day Weather Forecast

Advertisements
Track Severe Weather on mobile